»·PEaware :: N272WC KLGB-KOXR

N272WC :: KLGB-KOXR

FLIGHT INFORMATION

Flight Status: Arrived
Operator: Privately registered:
United States
More flights under this callsign
Pilot: Talal A. (17907)
Aircraft: CESSNA 172 SKYHAWK
(C172)
More flights by this aircraft type
Origin: KLGB Long Beach
United States
Destination: KOXR Oxnard
United States
More flights between these airports :: More routes between these airports
Route: +SLI V23 POPPR SMO125 SMO VNY
File this flight plan on PilotEdge
Remarks: CSTN24
Altitude:
(Current/Filed)
4,000ft
Speed:
(Current/Filed)
0kts
Departed: 16-May-18 09:45 PM
Arrived: 16-May-18 10:33 PM
Distance/Time
Traveled:
57nm/0:47
Distance/Time
To Go:
Arrived

Flight Plot

Page will automatically refresh every two minutes.


Map Options




Map Legend


Flown Route
Filed Route
Departure Airport
Arrival Airport
Navaid (VOR, NDB)
Fix

Horizontal Profiles

Position Reports

Time Latitude Longitude Heading Altitude Ground
Speed
16-May-18 21:33 33.812114 -118.150866 89 38ft 0kts
16-May-18 21:34 33.812114 -118.150866 89 38ft 0kts
16-May-18 21:35 33.812114 -118.150866 89 38ft 0kts
16-May-18 21:36 33.812114 -118.150866 89 38ft 0kts
16-May-18 21:37 33.812114 -118.150866 89 38ft 0kts
16-May-18 21:38 33.812114 -118.150866 89 38ft 0kts
16-May-18 21:39 33.812114 -118.150866 89 38ft 0kts
16-May-18 21:40 33.812114 -118.150866 89 38ft 0kts
16-May-18 21:41 33.812114 -118.150866 89 38ft 0kts
16-May-18 21:42 33.813014 -118.149635 69 37ft 25kts
16-May-18 21:43 33.811198 -118.144720 83 30ft 0kts
16-May-18 21:44 33.811198 -118.144720 83 30ft 0kts
16-May-18 21:45 33.815671 -118.148817 311 45ft 59kts
16-May-18 21:46 33.828850 -118.164417 289 1050ft 73kts
16-May-18 21:47 33.815416 -118.179529 211 2145ft 71kts
16-May-18 21:48 33.798587 -118.189297 211 3139ft 69kts
16-May-18 21:49 33.783758 -118.197893 211 3884ft 74kts
16-May-18 21:50 33.785664 -118.222702 303 4007ft 103kts
16-May-18 21:51 33.805371 -118.248371 318 4005ft 107kts
16-May-18 21:52 33.828889 -118.270203 318 4004ft 107kts
16-May-18 21:53 33.852472 -118.292295 317 4003ft 107kts
16-May-18 21:54 33.875210 -118.315290 316 4003ft 107kts
16-May-18 21:55 33.897661 -118.338433 315 4002ft 107kts
16-May-18 21:56 33.919714 -118.362229 315 4001ft 107kts
16-May-18 21:57 33.941226 -118.386202 315 4001ft 107kts
16-May-18 21:58 33.963090 -118.410309 320 4001ft 107kts
16-May-18 21:59 33.985951 -118.433232 325 4000ft 108kts
16-May-18 22:00 34.009451 -118.455732 319 4000ft 109kts
16-May-18 22:01 34.038050 -118.457055 0 4001ft 108kts
16-May-18 22:02 34.068204 -118.459114 357 4002ft 112kts
16-May-18 22:03 34.094115 -118.461799 357 4003ft 115kts
16-May-18 22:04 34.103695 -118.462769 357 4002ft 116kts
16-May-18 22:05 34.120864 -118.464559 351 4001ft 118kts
16-May-18 22:06 34.130852 -118.479330 284 4002ft 119kts
16-May-18 22:07 34.133365 -118.490318 283 4000ft 119kts
16-May-18 22:08 34.140388 -118.527391 283 3997ft 110kts
16-May-18 22:09 34.147136 -118.562983 283 3994ft 109kts
16-May-18 22:10 34.154062 -118.598467 283 3998ft 108kts
16-May-18 22:11 34.161021 -118.633321 283 4002ft 104kts
16-May-18 22:12 34.167545 -118.664992 283 4008ft 98kts
16-May-18 22:13 34.174273 -118.696619 283 4012ft 96kts
16-May-18 22:14 34.180262 -118.723806 283 4016ft 96kts
16-May-18 22:15 34.184419 -118.742236 283 4018ft 96kts
16-May-18 22:16 34.191555 -118.773187 281 4021ft 95kts
16-May-18 22:17 34.196959 -118.799471 280 4025ft 78kts
16-May-18 22:18 34.199007 -118.826804 268 4025ft 83kts
16-May-18 22:19 34.198733 -118.855241 268 4025ft 84kts
16-May-18 22:20 34.199092 -118.883777 270 4024ft 85kts
16-May-18 22:21 34.199495 -118.912416 266 4024ft 85kts
16-May-18 22:22 34.198355 -118.941068 269 4024ft 85kts
16-May-18 22:23 34.200059 -118.968896 274 3677ft 82kts
16-May-18 22:24 34.202273 -118.994468 263 3550ft 85kts
16-May-18 22:25 34.200180 -119.021946 267 2993ft 85kts
16-May-18 22:26 34.199879 -119.051567 269 2472ft 88kts
16-May-18 22:27 34.200012 -119.080456 270 1985ft 84kts
16-May-18 22:28 34.200194 -119.108449 270 1526ft 82kts
16-May-18 22:29 34.200325 -119.135737 271 1087ft 80kts
16-May-18 22:30 34.200518 -119.162374 270 665ft 78kts
16-May-18 22:31 34.200653 -119.184263 270 324ft 54kts
16-May-18 22:32 34.200744 -119.199936 268 86ft 51kts
16-May-18 22:33 34.200083 -119.207101 151 37ft 14kts

Navigation Log

Ident Type
1. KLGB Airport
2. SLI Navaid
3. POPPR Fix
4. SMO Navaid
5. VNY Navaid
6. KOXR Airport